createdAt,value
2019-03-11T00:00:37.374Z,33.97
2019-03-11T00:04:03.535Z,29.40
2019-03-11T00:05:45.989Z,25.50
2019-03-11T00:11:19.692Z,8.87
2019-03-11T00:14:09.694Z,11.90
2019-03-11T00:16:44.045Z,10.77
2019-03-11T00:19:16.928Z,12.30
2019-03-11T00:21:52.029Z,12.27
2019-03-11T00:24:22.423Z,6.27
2019-03-11T00:26:53.162Z,9.10
2019-03-11T00:29:23.540Z,10.20
2019-03-11T00:31:56.106Z,5.72
2019-03-11T00:34:28.436Z,10.73
2019-03-11T00:37:20.474Z,7.85
2019-03-11T00:39:52.154Z,7.87
2019-03-11T00:42:30.440Z,12.63
2019-03-11T00:45:00.691Z,12.60
2019-03-11T00:47:33.063Z,10.47
2019-03-11T00:50:05.176Z,7.20
2019-03-11T00:52:43.073Z,6.07
2019-03-11T00:55:09.594Z,10.08
2019-03-11T00:57:48.430Z,15.37
2019-03-11T01:00:30.413Z,11.48
2019-03-11T01:03:02.745Z,8.47
2019-03-11T01:05:34.746Z,6.50
2019-03-11T01:08:05.141Z,5.00
2019-03-11T01:10:35.483Z,5.33
2019-03-11T01:13:10.516Z,6.60
2019-03-11T01:15:40.864Z,3.83
2019-03-11T01:18:15.787Z,5.67
2019-03-11T01:20:44.996Z,5.10
2019-03-11T01:23:15.372Z,7.90
2019-03-11T01:25:46.339Z,4.37
2019-03-11T01:28:20.833Z,2.87
2019-03-11T01:30:50.253Z,5.10
2019-03-11T01:33:20.641Z,5.70
2019-03-11T01:35:50.978Z,4.30
2019-03-11T01:38:21.341Z,6.80
2019-03-11T01:40:53.082Z,4.85
2019-03-11T01:43:23.454Z,8.30
2019-03-11T01:45:54.584Z,5.80
2019-03-11T01:48:31.028Z,3.60
2019-03-11T01:51:01.821Z,3.27
2019-03-11T01:53:41.078Z,4.53
2019-03-11T01:56:11.227Z,5.07
2019-03-11T01:58:43.671Z,4.90
2019-03-11T02:01:14.285Z,3.75
2019-03-11T02:03:48.858Z,4.73
2019-03-11T02:06:19.161Z,5.17
2019-03-11T02:08:49.531Z,4.07
2019-03-11T02:11:20.663Z,2.20
2019-03-11T02:14:01.074Z,3.73
2019-03-11T02:16:31.736Z,2.70
2019-03-11T02:19:05.485Z,3.13
2019-03-11T02:21:38.008Z,5.70
2019-03-11T02:24:24.246Z,2.33
2019-03-11T02:26:51.649Z,5.50
2019-03-11T02:29:24.208Z,3.97
2019-03-11T02:31:54.618Z,4.20
2019-03-11T02:34:25.048Z,6.23
2019-03-11T02:36:55.712Z,6.15
2019-03-11T02:39:29.199Z,4.90
2019-03-11T02:42:01.724Z,6.15
2019-03-11T02:44:36.078Z,4.93
2019-03-11T02:47:06.037Z,3.43
2019-03-11T02:49:38.264Z,2.83
2019-03-11T02:52:08.889Z,5.63
2019-03-11T02:54:41.310Z,6.13
2019-03-11T02:57:11.924Z,7.43
2019-03-11T02:59:45.263Z,7.13
2019-03-11T03:02:42.004Z,4.50
2019-03-11T03:05:38.109Z,5.50
2019-03-11T03:08:00.763Z,6.57
2019-03-11T03:10:35.999Z,6.37
2019-03-11T03:13:08.064Z,5.70
2019-03-11T03:15:54.074Z,7.62
2019-03-11T03:18:16.270Z,6.27
2019-03-11T03:21:04.437Z,3.40
2019-03-11T03:23:45.387Z,5.53
2019-03-11T03:26:15.752Z,6.67
2019-03-11T03:28:48.937Z,6.28
2019-03-11T03:31:19.314Z,7.97
2019-03-11T03:33:58.204Z,11.03
2019-03-11T03:36:24.126Z,8.53
2019-03-11T03:38:58.517Z,6.23
2019-03-11T03:41:29.005Z,8.03
2019-03-11T03:43:59.419Z,13.07
2019-03-11T03:46:29.788Z,13.80
2019-03-11T03:49:05.589Z,9.50
2019-03-11T03:51:37.566Z,11.53
2019-03-11T03:54:08.241Z,6.85
2019-03-11T03:56:39.033Z,10.70
2019-03-11T03:59:28.507Z,7.30
2019-03-11T04:01:49.100Z,8.13
2019-03-11T04:04:40.092Z,6.35
2019-03-11T04:07:10.711Z,8.48
2019-03-11T04:09:48.610Z,5.17
2019-03-11T04:12:20.736Z,5.53
2019-03-11T04:15:00.496Z,4.70
2019-03-11T04:17:29.434Z,4.47
2019-03-11T04:20:06.414Z,8.30
2019-03-11T04:22:33.913Z,4.10
2019-03-11T04:25:13.378Z,5.13
2019-03-11T04:27:42.580Z,7.42
2019-03-11T04:30:20.334Z,5.40
2019-03-11T04:32:51.249Z,8.15
2019-03-11T04:35:25.164Z,5.63
2019-03-11T04:37:55.530Z,5.60
2019-03-11T04:40:52.411Z,4.80
2019-03-11T04:43:15.082Z,4.27
2019-03-11T04:45:51.334Z,5.62
2019-03-11T04:48:21.676Z,4.87
2019-03-11T04:50:54.625Z,4.40
2019-03-11T04:53:24.121Z,4.33
2019-03-11T04:56:06.469Z,4.85
2019-03-11T04:58:35.468Z,4.20
2019-03-11T05:01:13.712Z,8.73
2019-03-11T05:03:46.514Z,17.50
2019-03-11T05:06:21.748Z,15.13
2019-03-11T05:09:05.054Z,12.53
2019-03-11T05:11:36.576Z,16.33
2019-03-11T05:14:10.236Z,12.50
2019-03-11T05:16:39.587Z,19.60
2019-03-11T05:19:17.144Z,23.40
2019-03-11T05:21:46.763Z,25.93
2019-03-11T05:24:24.689Z,19.33
2019-03-11T05:26:55.232Z,22.77
2019-03-11T05:29:29.259Z,29.25
2019-03-11T05:31:59.649Z,24.17
2019-03-11T05:34:37.488Z,21.30
2019-03-11T05:37:04.811Z,23.87
2019-03-11T05:39:40.437Z,15.90
2019-03-11T05:42:10.846Z,21.33
2019-03-11T05:44:50.863Z,34.33
2019-03-11T05:47:17.945Z,34.20
2019-03-11T05:49:49.942Z,16.60
2019-03-11T05:52:20.905Z,20.40
2019-03-11T05:55:01.377Z,12.33
2019-03-11T05:57:32.536Z,13.18
2019-03-11T06:00:47.015Z,11.67
2019-03-11T06:02:43.315Z,12.68
2019-03-11T06:05:16.291Z,11.97
2019-03-11T06:07:48.652Z,17.07
2019-03-11T06:11:14.496Z,21.07
2019-03-11T06:12:54.968Z,30.70
2019-03-11T06:15:28.767Z,36.43
2019-03-11T06:18:05.067Z,25.50
2019-03-11T06:20:51.702Z,24.63
2019-03-11T06:23:22.333Z,20.50
2019-03-11T06:25:52.755Z,14.30
2019-03-11T06:28:23.089Z,12.30
2019-03-11T06:31:00.645Z,8.50
2019-03-11T06:33:33.017Z,10.98
2019-03-11T06:36:08.430Z,13.13
2019-03-11T06:38:43.290Z,11.47
2019-03-11T06:41:35.699Z,12.07
2019-03-11T06:44:10.586Z,10.27
2019-03-11T06:46:42.445Z,11.07
2019-03-11T06:50:11.070Z,8.47
2019-03-11T06:51:58.762Z,8.16
2019-03-11T06:54:33.860Z,6.45
2019-03-11T06:57:04.576Z,10.70
2019-03-11T06:59:40.563Z,8.00
2019-03-11T07:02:09.939Z,6.80
2019-03-11T07:05:39.956Z,18.15
2019-03-11T07:07:21.453Z,7.03
2019-03-11T07:10:27.547Z,5.85
2019-03-11T07:13:09.473Z,6.90
2019-03-11T07:15:40.005Z,9.83
2019-03-11T07:18:18.133Z,6.63
2019-03-11T07:20:45.299Z,5.47
2019-03-11T07:23:30.148Z,8.50
2019-03-11T07:26:03.016Z,6.40
2019-03-11T07:28:34.911Z,8.37
2019-03-11T07:31:12.512Z,8.90
2019-03-11T07:33:46.759Z,7.57
2019-03-11T07:36:17.418Z,8.20
2019-03-11T07:38:49.117Z,9.90
2019-03-11T07:41:21.213Z,8.67
2019-03-11T07:43:53.367Z,7.67
2019-03-11T07:46:25.357Z,6.18
2019-03-11T07:48:56.737Z,10.53
2019-03-11T07:51:27.441Z,12.50
2019-03-11T07:54:00.461Z,9.33
2019-03-11T07:56:32.192Z,9.13
2019-03-11T07:59:05.698Z,10.10
2019-03-11T08:01:37.738Z,10.20
2019-03-11T08:04:09.990Z,13.60
2019-03-11T08:06:40.621Z,11.47
2019-03-11T08:12:16.233Z,6.75
2019-03-11T08:15:13.484Z,9.40
2019-03-11T08:17:24.032Z,11.00
2019-03-11T08:20:10.316Z,6.23
2019-03-11T08:22:52.018Z,8.33
2019-03-11T08:25:23.672Z,4.80
2019-03-11T08:28:58.949Z,9.13
2019-03-11T08:30:43.965Z,10.07
2019-03-11T08:33:45.959Z,10.27
2019-03-11T08:36:18.178Z,6.50
2019-03-11T08:38:50.984Z,5.60
2019-03-11T08:49:05.873Z,7.27
2019-03-11T08:51:30.958Z,6.15
2019-03-11T08:54:04.751Z,7.80
2019-03-11T08:56:36.955Z,11.07
2019-03-11T08:59:08.881Z,11.93
2019-03-11T09:01:39.338Z,14.90
2019-03-11T09:04:11.415Z,13.30
2019-03-11T09:06:43.497Z,13.33
2019-03-11T09:09:15.489Z,13.63
2019-03-11T09:11:45.769Z,13.77
2019-03-11T09:14:56.664Z,15.23
2019-03-11T09:17:30.930Z,17.60
2019-03-11T09:20:01.227Z,15.70
2019-03-11T09:22:32.653Z,15.90
2019-03-11T09:25:11.272Z,15.37
2019-03-11T09:27:42.171Z,19.63
2019-03-11T09:30:16.324Z,19.13
2019-03-11T09:33:04.466Z,16.80
2019-03-11T09:35:35.010Z,16.10
2019-03-11T09:38:05.930Z,17.53
2019-03-11T09:40:36.219Z,6.20
2019-03-11T09:43:13.965Z,6.27
2019-03-11T09:45:44.310Z,9.90
2019-03-11T09:48:20.038Z,9.27
2019-03-11T09:50:50.371Z,8.00
2019-03-11T09:53:24.282Z,7.15
2019-03-11T09:55:56.224Z,7.00
2019-03-11T09:58:32.495Z,5.67
2019-03-11T10:01:02.395Z,7.70
2019-03-11T10:03:32.737Z,5.70
2019-03-11T10:06:04.733Z,3.70
2019-03-11T10:08:35.726Z,3.87
2019-03-11T10:11:08.669Z,4.53
2019-03-11T10:13:38.978Z,4.03
2019-03-11T10:16:13.542Z,7.00
2019-03-11T10:18:45.895Z,5.10
2019-03-11T10:21:22.793Z,4.83
2019-03-11T10:23:54.738Z,6.57
2019-03-11T10:26:28.402Z,4.67
2019-03-11T10:28:58.969Z,4.72
2019-03-11T10:31:30.342Z,5.73
2019-03-11T10:34:00.658Z,5.87
2019-03-11T10:36:30.954Z,4.07
2019-03-11T10:39:04.053Z,4.40
2019-03-11T10:41:37.201Z,2.77
2019-03-11T10:44:08.160Z,5.62
2019-03-11T10:46:41.301Z,5.10
2019-03-11T10:49:11.869Z,5.22
2019-03-11T10:51:43.266Z,5.60
2019-03-11T10:54:15.482Z,3.80
2019-03-11T10:56:56.516Z,3.60
2019-03-11T10:59:26.898Z,4.47
2019-03-11T11:01:58.512Z,3.50
2019-03-11T11:04:28.850Z,6.05
2019-03-11T11:06:59.310Z,3.93
2019-03-11T11:09:29.901Z,4.43
2019-03-11T11:12:00.531Z,3.17
2019-03-11T11:14:33.747Z,4.47
2019-03-11T11:19:46.677Z,5.17
2019-03-11T11:22:14.172Z,3.33
2019-03-11T11:24:47.113Z,5.30
2019-03-11T11:27:17.468Z,2.43
2019-03-11T11:29:48.913Z,4.47
2019-03-11T11:32:21.008Z,4.23
2019-03-11T11:35:04.456Z,4.97
2019-03-11T11:37:27.231Z,3.43
2019-03-11T11:39:57.801Z,5.00
2019-03-11T11:42:28.089Z,7.47
2019-03-11T11:45:01.482Z,5.30
2019-03-11T11:47:31.767Z,6.33
2019-03-11T11:50:06.940Z,5.33
2019-03-11T11:52:38.862Z,2.47
2019-03-11T11:55:14.563Z,3.70
2019-03-11T11:57:48.133Z,2.00
2019-03-11T12:00:26.635Z,4.73
2019-03-11T12:02:57.694Z,5.17
2019-03-11T12:05:29.451Z,2.37
2019-03-11T12:08:00.521Z,4.55
2019-03-11T12:10:33.971Z,2.17
2019-03-11T12:13:04.483Z,1.97
2019-03-11T12:15:34.887Z,5.40
2019-03-11T12:18:07.072Z,3.17
2019-03-11T12:20:39.506Z,3.33
2019-03-11T12:23:12.394Z,7.33
2019-03-11T12:25:42.722Z,5.10
2019-03-11T12:28:16.823Z,2.72
2019-03-11T12:30:48.883Z,5.47
2019-03-11T12:33:21.393Z,6.78
2019-03-11T12:35:53.298Z,3.83
2019-03-11T12:38:23.779Z,6.57
2019-03-11T12:40:54.120Z,4.47
2019-03-11T12:43:25.735Z,3.83
2019-03-11T12:45:57.452Z,3.23
2019-03-11T12:48:29.694Z,3.13
2019-03-11T12:51:01.965Z,5.63
2019-03-11T12:53:34.516Z,5.50
2019-03-11T12:56:11.925Z,3.40
2019-03-11T12:58:44.265Z,3.92
2019-03-11T13:01:17.991Z,4.50
2019-03-11T13:03:50.336Z,7.30
2019-03-11T13:06:20.833Z,6.00
2019-03-11T13:08:52.402Z,3.62
2019-03-11T13:11:22.792Z,4.40
2019-03-11T13:13:53.375Z,7.93
2019-03-11T13:16:23.711Z,3.97
2019-03-11T13:18:56.909Z,3.63
2019-03-11T13:21:38.457Z,4.97
2019-03-11T13:24:09.381Z,4.00
2019-03-11T13:26:41.336Z,2.33
2019-03-11T13:29:11.892Z,3.33
2019-03-11T13:31:45.658Z,4.13
2019-03-11T13:34:18.899Z,4.33
2019-03-11T13:36:50.301Z,4.00
2019-03-11T13:39:25.231Z,8.53
2019-03-11T13:41:55.661Z,4.40
2019-03-11T13:44:27.384Z,3.60
2019-03-11T13:46:59.214Z,3.47
2019-03-11T13:49:36.714Z,3.24
2019-03-11T13:55:26.149Z,3.47
2019-03-11T13:58:06.422Z,5.37
2019-03-11T14:03:49.383Z,5.58
2019-03-11T14:06:29.172Z,5.80
2019-03-11T14:08:54.694Z,4.10
2019-03-11T14:11:28.269Z,3.57
2019-03-11T14:13:58.924Z,5.23
2019-03-11T14:16:31.908Z,5.07
2019-03-11T14:19:02.494Z,5.90
2019-03-11T14:21:35.685Z,5.83
2019-03-11T14:24:07.620Z,3.87
2019-03-11T14:26:57.032Z,5.07
2019-03-11T14:29:27.330Z,4.17
2019-03-11T14:32:03.327Z,6.03
2019-03-11T14:34:33.636Z,4.83
2019-03-11T14:37:09.755Z,3.63
2019-03-11T14:39:49.191Z,5.27
2019-03-11T14:42:24.125Z,7.70
2019-03-11T14:45:14.160Z,5.40
2019-03-11T14:47:44.724Z,5.28
2019-03-11T14:50:16.754Z,3.73
2019-03-11T14:52:47.623Z,3.57
2019-03-11T14:55:19.738Z,5.80
2019-03-11T14:57:52.546Z,6.72
2019-03-11T15:00:30.445Z,10.63
2019-03-11T15:03:03.909Z,5.47
2019-03-11T15:05:47.093Z,4.60
2019-03-11T15:08:12.611Z,7.23
2019-03-11T15:10:57.021Z,5.90
2019-03-11T15:13:27.373Z,8.53
2019-03-11T15:16:09.511Z,5.28
2019-03-11T15:18:41.489Z,4.47
2019-03-11T15:21:20.032Z,4.50
2019-03-11T15:23:47.054Z,5.20
2019-03-11T15:26:36.609Z,6.63
2019-03-11T15:29:11.160Z,5.67
2019-03-11T15:31:41.859Z,9.20
2019-03-11T15:34:31.408Z,4.85
2019-03-11T15:37:04.145Z,3.75
2019-03-11T15:40:07.539Z,3.50
2019-03-11T15:42:36.560Z,3.57
2019-03-11T15:45:18.885Z,4.10
2019-03-11T15:47:56.851Z,5.73
2019-03-11T15:50:27.624Z,4.80
2019-03-11T15:52:58.016Z,4.30
2019-03-11T15:55:33.705Z,3.90
2019-03-11T15:58:06.090Z,3.83
2019-03-11T16:00:38.781Z,10.28
2019-03-11T16:03:10.802Z,4.50
2019-03-11T16:05:45.809Z,8.97
2019-03-11T16:08:15.325Z,6.23
2019-03-11T16:10:50.978Z,5.62
2019-03-11T16:13:21.336Z,8.17
2019-03-11T16:15:52.027Z,7.60
2019-03-11T16:18:23.504Z,7.23
2019-03-11T16:20:54.116Z,7.83
2019-03-11T16:23:45.883Z,3.27
2019-03-11T16:26:18.982Z,4.90
2019-03-11T16:28:49.611Z,5.83
2019-03-11T16:31:19.968Z,4.33
2019-03-11T16:33:50.718Z,3.63
2019-03-11T16:36:24.450Z,4.35
2019-03-11T16:38:54.858Z,6.67
2019-03-11T16:41:29.834Z,4.55
2019-03-11T16:44:04.870Z,6.03
2019-03-11T16:46:35.591Z,5.77
2019-03-11T16:49:29.451Z,10.37
2019-03-11T16:51:39.947Z,7.77
2019-03-11T16:54:15.022Z,6.47
2019-03-11T16:56:45.433Z,5.53
2019-03-11T16:59:20.313Z,8.00
2019-03-11T17:02:26.876Z,9.50
2019-03-11T17:04:42.817Z,8.48
2019-03-11T17:07:17.535Z,7.67
2019-03-11T17:09:48.172Z,9.90
2019-03-11T17:12:21.528Z,5.47
2019-03-11T17:14:52.016Z,7.83
2019-03-11T17:17:22.535Z,7.93
2019-03-11T17:19:54.913Z,9.63
2019-03-11T17:22:32.093Z,7.33
2019-03-11T17:25:07.067Z,10.87
2019-03-11T17:27:40.622Z,10.30
2019-03-11T17:30:26.292Z,6.40
2019-03-11T17:32:53.303Z,9.95
2019-03-11T17:35:44.732Z,6.80
2019-03-11T17:38:17.754Z,7.70
2019-03-11T17:40:49.444Z,8.90
2019-03-11T17:43:22.393Z,10.53
2019-03-11T17:45:54.724Z,11.63
2019-03-11T17:48:44.580Z,8.43
2019-03-11T17:51:23.442Z,9.58
2019-03-11T17:53:57.273Z,7.03
2019-03-11T17:56:47.933Z,10.20
2019-03-11T17:59:21.161Z,11.35
2019-03-11T18:01:51.844Z,10.07
2019-03-11T18:04:27.308Z,11.36
2019-03-11T18:06:57.793Z,10.30
2019-03-11T18:09:32.254Z,9.03
2019-03-11T18:12:10.746Z,12.83
2019-03-11T18:14:41.320Z,5.37
2019-03-11T18:18:03.670Z,8.40
2019-03-11T18:19:54.198Z,7.60
2019-03-11T18:22:34.739Z,6.67
2019-03-11T18:25:51.141Z,8.10
2019-03-11T18:27:31.019Z,6.73
2019-03-11T18:30:05.988Z,4.30
2019-03-11T18:32:35.545Z,8.50
2019-03-11T18:35:30.511Z,6.07
2019-03-11T18:38:10.897Z,10.30
2019-03-11T18:40:38.600Z,12.07
2019-03-11T18:43:20.659Z,10.50
2019-03-11T18:45:49.445Z,11.87
2019-03-11T18:48:26.363Z,13.23
2019-03-11T18:51:11.406Z,9.73
2019-03-11T18:53:49.015Z,10.03
2019-03-11T18:56:34.943Z,11.45
2019-03-11T18:59:11.242Z,9.73
2019-03-11T19:01:44.010Z,10.93
2019-03-11T19:04:33.565Z,8.73
2019-03-11T19:07:12.011Z,10.90
2019-03-11T19:09:45.230Z,10.63
2019-03-11T19:12:16.594Z,10.67
2019-03-11T19:15:00.873Z,12.13
2019-03-11T19:18:00.811Z,8.93
2019-03-11T19:20:59.655Z,8.43
2019-03-11T19:23:33.192Z,9.13
2019-03-11T19:26:05.140Z,12.20
2019-03-11T19:28:37.411Z,9.40
2019-03-11T19:31:09.340Z,5.80
2019-03-11T19:33:39.928Z,11.97
2019-03-11T19:36:10.476Z,13.87
2019-03-11T19:38:52.790Z,10.10
2019-03-11T19:41:36.873Z,12.43
2019-03-11T19:44:04.277Z,14.65
2019-03-11T19:46:37.073Z,16.25
2019-03-11T19:49:07.705Z,11.80
2019-03-11T19:51:52.185Z,11.87
2019-03-11T19:54:24.113Z,19.60
2019-03-11T19:56:56.265Z,18.37
2019-03-11T19:59:26.914Z,12.77
2019-03-11T20:01:57.952Z,14.85
2019-03-11T20:04:34.113Z,11.33
2019-03-11T20:07:05.151Z,13.15
2019-03-11T20:09:44.043Z,7.85
2019-03-11T20:12:24.276Z,12.07
2019-03-11T20:14:54.696Z,14.67
2019-03-11T20:17:51.911Z,10.97
2019-03-11T20:20:22.724Z,14.30
2019-03-11T20:22:53.229Z,5.93
2019-03-11T20:25:36.645Z,8.35
2019-03-11T20:28:03.894Z,9.23
2019-03-11T20:30:40.370Z,5.33
2019-03-11T20:33:18.866Z,6.87
2019-03-11T20:35:49.557Z,8.03
2019-03-11T20:38:23.753Z,10.70
2019-03-11T20:40:55.904Z,10.17
2019-03-11T20:43:34.584Z,8.40
2019-03-11T20:46:07.177Z,6.20
2019-03-11T20:48:39.004Z,6.23
2019-03-11T20:51:10.599Z,8.23
2019-03-11T20:53:41.288Z,9.53
2019-03-11T20:56:18.808Z,10.13
2019-03-11T20:58:47.638Z,7.05
2019-03-11T21:01:36.461Z,7.37
2019-03-11T21:04:10.423Z,4.07
2019-03-11T21:06:40.909Z,12.63
2019-03-11T21:09:20.271Z,9.50
2019-03-11T21:11:54.839Z,9.20
2019-03-11T21:14:25.397Z,10.80
2019-03-11T21:16:57.905Z,13.37
2019-03-11T21:19:28.639Z,10.00
2019-03-11T21:22:03.575Z,8.27
2019-03-11T21:24:37.993Z,10.00
2019-03-11T21:27:11.637Z,9.37
2019-03-11T21:29:55.181Z,7.80
2019-03-11T21:32:30.302Z,5.93
2019-03-11T21:35:06.988Z,9.57
2019-03-11T21:37:39.239Z,6.77
2019-03-11T21:40:14.720Z,5.87
2019-03-11T21:43:27.098Z,8.03
2019-03-11T21:46:41.804Z,8.17
2019-03-11T21:48:47.948Z,6.53
2019-03-11T21:51:34.500Z,6.37
2019-03-11T21:54:12.304Z,8.23
2019-03-11T21:56:42.766Z,7.40
2019-03-11T21:59:44.385Z,7.80
2019-03-11T22:01:48.385Z,7.90
2019-03-11T22:04:33.408Z,10.10
2019-03-11T22:07:11.514Z,12.10
2019-03-11T22:09:45.477Z,15.06
2019-03-11T22:12:23.123Z,14.20
2019-03-11T22:15:15.187Z,13.22
2019-03-11T22:17:42.623Z,10.30
2019-03-11T22:20:53.047Z,9.83
2019-03-11T22:23:35.641Z,7.53
2019-03-11T22:26:06.004Z,10.60
2019-03-11T22:28:49.625Z,4.57
2019-03-11T22:31:21.252Z,7.83
2019-03-11T22:33:54.403Z,6.90
2019-03-11T22:36:31.777Z,7.47
2019-03-11T22:39:05.265Z,7.87
2019-03-11T22:41:42.956Z,6.70
2019-03-11T22:44:23.802Z,9.63
2019-03-11T22:46:46.563Z,8.25
2019-03-11T22:49:23.633Z,5.72
2019-03-11T22:51:55.559Z,4.77
2019-03-11T22:54:45.259Z,7.92
2019-03-11T22:57:18.767Z,8.70
2019-03-11T22:59:51.851Z,6.37
2019-03-11T23:02:39.768Z,8.93
2019-03-11T23:04:57.919Z,8.00
2019-03-11T23:07:32.869Z,8.80
2019-03-11T23:10:13.617Z,5.23
2019-03-11T23:12:40.779Z,9.27
2019-03-11T23:15:21.196Z,7.80
2019-03-11T23:17:53.488Z,5.37
2019-03-11T23:20:25.600Z,6.23
2019-03-11T23:22:59.413Z,4.08
2019-03-11T23:25:29.784Z,6.00
2019-03-11T23:28:04.600Z,3.90
2019-03-11T23:30:36.569Z,11.47
2019-03-11T23:33:08.084Z,6.50
2019-03-11T23:35:38.403Z,10.60
2019-03-11T23:38:13.312Z,11.85
2019-03-11T23:41:13.645Z,16.87
2019-03-11T23:43:45.642Z,13.80
2019-03-11T23:46:19.469Z,14.73
2019-03-11T23:48:51.159Z,17.10
2019-03-11T23:51:22.155Z,13.36
2019-03-11T23:53:54.216Z,12.77
2019-03-11T23:56:26.106Z,12.18
2019-03-11T23:59:19.687Z,12.70
